createdAt,value
2022-08-26T00:00:30.025Z,18.39
2022-08-26T00:01:29.839Z,18.36
2022-08-26T00:02:30.059Z,18.36
2022-08-26T00:03:29.602Z,18.33
2022-08-26T00:04:29.618Z,18.33
2022-08-26T00:05:29.571Z,18.30
2022-08-26T00:06:29.542Z,18.30
2022-08-26T00:07:29.552Z,18.29
2022-08-26T00:08:29.512Z,18.29
2022-08-26T00:09:29.536Z,18.26
2022-08-26T00:10:29.481Z,18.26
2022-08-26T00:11:29.469Z,18.23
2022-08-26T00:12:37.344Z,18.20
2022-08-26T00:13:30.488Z,18.20
2022-08-26T00:14:31.012Z,18.17
2022-08-26T00:15:29.479Z,18.15
2022-08-26T00:16:29.444Z,18.17
2022-08-26T00:17:29.420Z,18.17
2022-08-26T00:18:29.399Z,18.14
2022-08-26T00:19:29.372Z,18.14
2022-08-26T00:20:29.365Z,18.12
2022-08-26T00:21:29.502Z,18.12
2022-08-26T00:22:29.990Z,18.12
2022-08-26T00:23:29.399Z,18.12
2022-08-26T00:24:29.338Z,18.14
2022-08-26T00:25:29.301Z,18.15
2022-08-26T00:26:29.327Z,18.17
2022-08-26T00:27:29.623Z,18.21
2022-08-26T00:28:29.272Z,18.25
2022-08-26T00:29:29.298Z,18.23
2022-08-26T00:30:29.630Z,18.23
2022-08-26T00:31:31.213Z,18.23
2022-08-26T00:32:29.209Z,18.23
2022-08-26T00:33:29.218Z,18.18
2022-08-26T00:34:29.219Z,18.18
2022-08-26T00:35:29.187Z,18.15
2022-08-26T00:36:29.775Z,18.14
2022-08-26T00:37:29.178Z,18.12
2022-08-26T00:38:29.159Z,18.11
2022-08-26T00:39:29.168Z,18.07
2022-08-26T00:40:29.450Z,18.08
2022-08-26T00:41:29.339Z,18.08
2022-08-26T00:42:29.355Z,18.03
2022-08-26T00:43:29.409Z,18.03
2022-08-26T00:44:29.067Z,18.00
2022-08-26T00:45:29.095Z,17.97
2022-08-26T00:46:29.033Z,17.92
2022-08-26T00:47:31.002Z,17.92
2022-08-26T00:48:31.911Z,17.90
2022-08-26T00:49:29.555Z,17.92
2022-08-26T00:50:29.006Z,17.92
2022-08-26T00:51:30.022Z,17.92
2022-08-26T00:52:28.967Z,17.90
2022-08-26T00:53:29.298Z,17.92
2022-08-26T00:54:28.959Z,17.90
2022-08-26T00:55:38.037Z,17.89
2022-08-26T00:56:29.916Z,17.87
2022-08-26T00:57:29.621Z,17.86
2022-08-26T00:58:29.336Z,17.84
2022-08-26T00:59:28.865Z,17.82
2022-08-26T01:00:28.941Z,17.81
2022-08-26T01:01:28.880Z,17.77
2022-08-26T01:02:28.954Z,17.77
2022-08-26T01:03:28.855Z,17.74
2022-08-26T01:04:28.815Z,17.71
2022-08-26T01:05:29.751Z,17.70
2022-08-26T01:06:28.773Z,17.71
2022-08-26T01:07:30.209Z,17.68
2022-08-26T01:08:29.196Z,17.66
2022-08-26T01:09:28.724Z,17.66
2022-08-26T01:10:28.725Z,17.62
2022-08-26T01:11:28.723Z,17.62
2022-08-26T01:12:28.695Z,17.59
2022-08-26T01:13:29.114Z,17.56
2022-08-26T01:14:28.664Z,17.55
2022-08-26T01:15:28.681Z,17.56
2022-08-26T01:16:28.702Z,17.59
2022-08-26T01:17:28.664Z,17.64
2022-08-26T01:18:28.903Z,17.68
2022-08-26T01:19:28.612Z,17.68
2022-08-26T01:20:28.622Z,17.70
2022-08-26T01:21:28.615Z,17.70
2022-08-26T01:22:28.705Z,17.70
2022-08-26T01:23:28.550Z,17.68
2022-08-26T01:24:28.944Z,17.68
2022-08-26T01:25:28.529Z,17.64
2022-08-26T01:26:28.541Z,17.63
2022-08-26T01:27:28.515Z,17.62
2022-08-26T01:28:28.771Z,17.62
2022-08-26T01:29:28.583Z,17.63
2022-08-26T01:30:28.484Z,17.64
2022-08-26T01:31:28.504Z,17.62
2022-08-26T01:32:28.482Z,17.56
2022-08-26T01:33:28.451Z,17.54
2022-08-26T01:34:28.853Z,17.51
2022-08-26T01:35:28.390Z,17.46
2022-08-26T01:36:28.371Z,17.44
2022-08-26T01:37:28.371Z,17.41
2022-08-26T01:38:28.670Z,17.38
2022-08-26T01:39:28.350Z,17.34
2022-08-26T01:40:28.450Z,17.33
2022-08-26T01:41:29.170Z,17.30
2022-08-26T01:42:28.523Z,17.26
2022-08-26T01:43:28.298Z,17.23
2022-08-26T01:44:28.726Z,17.23
2022-08-26T01:45:28.324Z,17.25
2022-08-26T01:46:28.288Z,17.25
2022-08-26T01:47:28.222Z,17.28
2022-08-26T01:48:28.212Z,17.30
2022-08-26T01:49:36.189Z,17.28
2022-08-26T01:50:35.634Z,17.30
2022-08-26T01:51:35.480Z,17.31
2022-08-26T01:52:35.802Z,17.30
2022-08-26T01:53:28.165Z,17.26
2022-08-26T01:54:28.796Z,17.26
2022-08-26T01:55:33.432Z,17.25
2022-08-26T01:56:33.131Z,17.22
2022-08-26T01:57:29.231Z,17.18
2022-08-26T01:58:28.097Z,17.16
2022-08-26T01:59:28.455Z,17.12
2022-08-26T02:00:28.143Z,17.11
2022-08-26T02:01:29.086Z,17.06
2022-08-26T02:02:28.056Z,17.06
2022-08-26T02:03:28.043Z,17.04
2022-08-26T02:04:28.637Z,17.04
2022-08-26T02:05:28.011Z,17.03
2022-08-26T02:06:28.024Z,17.03
2022-08-26T02:07:28.013Z,17.01
2022-08-26T02:08:27.974Z,17.01
2022-08-26T02:09:28.373Z,17.00
2022-08-26T02:10:28.033Z,17.00
2022-08-26T02:11:27.943Z,16.98
2022-08-26T02:12:27.947Z,17.00
2022-08-26T02:13:27.903Z,16.98
2022-08-26T02:14:28.267Z,16.97
2022-08-26T02:15:28.293Z,16.97
2022-08-26T02:16:27.966Z,16.96
2022-08-26T02:17:27.877Z,16.94
2022-08-26T02:18:27.813Z,16.96
2022-08-26T02:19:27.894Z,16.93
2022-08-26T02:20:28.253Z,16.93
2022-08-26T02:21:27.822Z,16.89
2022-08-26T02:22:27.802Z,16.91
2022-08-26T02:23:27.752Z,16.86
2022-08-26T02:24:27.887Z,16.89
2022-08-26T02:25:28.121Z,16.89
2022-08-26T02:26:27.740Z,16.86
2022-08-26T02:27:28.255Z,16.85
2022-08-26T02:28:27.698Z,16.82
2022-08-26T02:29:27.681Z,16.82
2022-08-26T02:30:28.181Z,16.82
2022-08-26T02:31:27.711Z,16.81
2022-08-26T02:32:27.660Z,16.78
2022-08-26T02:33:27.628Z,16.81
2022-08-26T02:34:31.025Z,16.78
2022-08-26T02:35:27.610Z,16.75
2022-08-26T02:36:28.663Z,16.75
2022-08-26T02:37:27.590Z,16.73
2022-08-26T02:38:27.562Z,16.70
2022-08-26T02:39:27.578Z,16.68
2022-08-26T02:40:28.030Z,16.68
2022-08-26T02:41:27.516Z,16.68
2022-08-26T02:42:27.525Z,16.68
2022-08-26T02:43:31.361Z,16.67
2022-08-26T02:44:27.483Z,16.66
2022-08-26T02:45:27.815Z,16.68
2022-08-26T02:46:30.071Z,16.67
2022-08-26T02:47:28.917Z,16.67
2022-08-26T02:48:27.425Z,16.67
2022-08-26T02:49:27.417Z,16.67
2022-08-26T02:50:27.808Z,16.66
2022-08-26T02:51:27.414Z,16.66
2022-08-26T02:52:27.398Z,16.66
2022-08-26T02:53:27.389Z,16.64
2022-08-26T02:54:27.357Z,16.64
2022-08-26T02:55:27.778Z,16.64
2022-08-26T02:56:27.329Z,16.66
2022-08-26T02:57:27.321Z,16.63
2022-08-26T02:58:27.346Z,16.61
2022-08-26T02:59:27.286Z,16.63
2022-08-26T03:00:27.747Z,16.64
2022-08-26T03:01:27.441Z,16.66
2022-08-26T03:02:27.363Z,16.64
2022-08-26T03:03:27.256Z,16.66
2022-08-26T03:04:27.212Z,16.70
2022-08-26T03:05:27.609Z,16.73
2022-08-26T03:06:27.204Z,16.75
2022-08-26T03:07:27.205Z,16.75
2022-08-26T03:08:27.185Z,16.75
2022-08-26T03:09:27.146Z,16.75
2022-08-26T03:10:27.608Z,16.73
2022-08-26T03:11:32.259Z,16.73
2022-08-26T03:12:28.134Z,16.68
2022-08-26T03:13:27.144Z,16.66
2022-08-26T03:14:27.088Z,16.63
2022-08-26T03:15:27.561Z,16.58
2022-08-26T03:16:32.207Z,16.53
2022-08-26T03:17:28.057Z,16.49
2022-08-26T03:18:27.054Z,16.45
2022-08-26T03:19:27.030Z,16.43
2022-08-26T03:20:27.015Z,16.38
2022-08-26T03:21:27.363Z,16.34
2022-08-26T03:22:27.119Z,16.31
2022-08-26T03:23:26.962Z,16.31
2022-08-26T03:24:28.171Z,16.30
2022-08-26T03:25:26.954Z,16.30
2022-08-26T03:26:27.345Z,16.30
2022-08-26T03:27:26.912Z,16.25
2022-08-26T03:28:27.230Z,16.25
2022-08-26T03:29:26.875Z,16.24
2022-08-26T03:30:27.881Z,16.21
2022-08-26T03:31:27.660Z,16.15
2022-08-26T03:32:26.948Z,16.14
2022-08-26T03:33:26.842Z,16.12
2022-08-26T03:34:26.799Z,16.12
2022-08-26T03:35:26.821Z,16.11
2022-08-26T03:36:27.230Z,16.11
2022-08-26T03:37:26.791Z,16.11
2022-08-26T03:38:26.760Z,16.11
2022-08-26T03:39:26.761Z,16.09
2022-08-26T03:40:29.095Z,16.09
2022-08-26T03:41:27.159Z,16.09
2022-08-26T03:42:26.727Z,16.11
2022-08-26T03:43:26.726Z,16.12
2022-08-26T03:44:26.677Z,16.12
2022-08-26T03:45:26.680Z,16.12
2022-08-26T03:46:27.166Z,16.14
2022-08-26T03:47:26.680Z,16.14
2022-08-26T03:48:26.639Z,16.12
2022-08-26T03:49:28.863Z,16.14
2022-08-26T03:50:26.609Z,16.20
2022-08-26T03:51:26.949Z,16.21
2022-08-26T03:52:26.591Z,16.23
2022-08-26T03:53:26.606Z,16.21
2022-08-26T03:54:26.587Z,16.24
2022-08-26T03:55:26.539Z,16.27
2022-08-26T03:56:26.928Z,16.27
2022-08-26T03:57:26.526Z,16.28
2022-08-26T03:58:26.489Z,16.28
2022-08-26T03:59:26.471Z,16.30
2022-08-26T04:00:26.497Z,16.30
2022-08-26T04:01:26.494Z,16.30
2022-08-26T04:02:29.119Z,16.30
2022-08-26T04:03:26.490Z,16.31
2022-08-26T04:04:26.426Z,16.30
2022-08-26T04:05:26.427Z,16.31
2022-08-26T04:06:26.395Z,16.31
2022-08-26T04:07:26.815Z,16.30
2022-08-26T04:08:26.374Z,16.27
2022-08-26T04:09:26.366Z,16.27
2022-08-26T04:10:26.433Z,16.25
2022-08-26T04:11:26.346Z,16.25
2022-08-26T04:12:26.869Z,16.27
2022-08-26T04:13:26.293Z,16.24
2022-08-26T04:14:26.272Z,16.24
2022-08-26T04:15:26.269Z,16.21
2022-08-26T04:16:26.750Z,16.23
2022-08-26T04:17:26.236Z,16.20
2022-08-26T04:18:28.484Z,16.17
2022-08-26T04:19:27.244Z,16.12
2022-08-26T04:20:26.193Z,16.09
2022-08-26T04:21:26.518Z,16.08
2022-08-26T04:22:26.193Z,16.05
2022-08-26T04:23:26.144Z,16.05
2022-08-26T04:24:26.152Z,16.01
2022-08-26T04:25:26.135Z,15.97
2022-08-26T04:26:26.182Z,15.96
2022-08-26T04:27:26.455Z,15.94
2022-08-26T04:28:26.121Z,15.93
2022-08-26T04:29:26.093Z,15.94
2022-08-26T04:30:26.083Z,15.93
2022-08-26T04:31:26.190Z,15.90
2022-08-26T04:32:26.420Z,15.92
2022-08-26T04:33:32.408Z,15.90
2022-08-26T04:34:28.480Z,15.87
2022-08-26T04:35:26.308Z,15.83
2022-08-26T04:36:25.996Z,15.82
2022-08-26T04:37:26.409Z,15.80
2022-08-26T04:38:25.951Z,15.80
2022-08-26T04:39:27.883Z,15.80
2022-08-26T04:40:25.997Z,15.80
2022-08-26T04:41:25.941Z,15.80
2022-08-26T04:42:27.339Z,15.82
2022-08-26T04:43:25.901Z,15.83
2022-08-26T04:44:27.070Z,15.84
2022-08-26T04:45:25.929Z,15.89
2022-08-26T04:46:25.944Z,15.90
2022-08-26T04:47:30.405Z,15.92
2022-08-26T04:48:26.827Z,15.93
2022-08-26T04:49:26.067Z,15.96
2022-08-26T04:50:25.834Z,15.96
2022-08-26T04:51:25.788Z,16.00
2022-08-26T04:52:26.203Z,16.00
2022-08-26T04:53:25.746Z,16.00
2022-08-26T04:54:25.749Z,16.00
2022-08-26T04:55:38.629Z,16.02
2022-08-26T04:56:26.714Z,16.05
2022-08-26T04:57:25.708Z,16.08
2022-08-26T04:58:26.123Z,16.09
2022-08-26T04:59:25.720Z,16.09
2022-08-26T05:00:25.888Z,16.12
2022-08-26T05:01:26.304Z,16.14
2022-08-26T05:02:26.288Z,16.17
2022-08-26T05:03:27.380Z,16.21
2022-08-26T05:04:25.644Z,16.27
2022-08-26T05:05:25.595Z,16.33
2022-08-26T05:06:25.587Z,16.41
2022-08-26T05:07:25.596Z,16.49
2022-08-26T05:08:26.208Z,16.56
2022-08-26T05:09:25.537Z,16.60
2022-08-26T05:10:25.556Z,16.67
2022-08-26T05:11:25.521Z,16.68
2022-08-26T05:12:25.503Z,16.75
2022-08-26T05:13:25.825Z,16.81
2022-08-26T05:14:25.515Z,16.85
2022-08-26T05:15:25.456Z,16.89
2022-08-26T05:16:25.493Z,16.94
2022-08-26T05:17:25.452Z,17.00
2022-08-26T05:18:25.843Z,17.04
2022-08-26T05:19:25.441Z,17.07
2022-08-26T05:20:26.064Z,17.14
2022-08-26T05:21:25.416Z,17.19
2022-08-26T05:22:25.368Z,17.25
2022-08-26T05:23:25.754Z,17.30
2022-08-26T05:24:25.358Z,17.36
2022-08-26T05:25:25.372Z,17.38
2022-08-26T05:26:25.733Z,17.43
2022-08-26T05:27:25.314Z,17.46
2022-08-26T05:28:25.754Z,17.52
2022-08-26T05:29:25.294Z,17.56
2022-08-26T05:30:25.285Z,17.63
2022-08-26T05:31:25.303Z,17.70
2022-08-26T05:32:25.245Z,17.70
2022-08-26T05:33:25.703Z,17.71
2022-08-26T05:34:25.834Z,17.75
2022-08-26T05:35:26.233Z,17.81
2022-08-26T05:36:26.875Z,17.84
2022-08-26T05:37:25.166Z,17.90
2022-08-26T05:38:25.493Z,17.95
2022-08-26T05:39:25.143Z,18.00
2022-08-26T05:40:25.243Z,18.03
2022-08-26T05:41:25.162Z,18.07
2022-08-26T05:42:25.154Z,18.15
2022-08-26T05:43:25.107Z,18.18
2022-08-26T05:44:25.521Z,18.20
2022-08-26T05:45:25.084Z,18.20
2022-08-26T05:46:25.113Z,18.21
2022-08-26T05:47:25.079Z,18.25
2022-08-26T05:48:25.056Z,18.26
2022-08-26T05:49:26.316Z,18.26
2022-08-26T05:50:25.004Z,18.29
2022-08-26T05:51:26.101Z,18.32
2022-08-26T05:52:26.072Z,18.36
2022-08-26T05:53:26.090Z,18.37
2022-08-26T05:54:25.382Z,18.37
2022-08-26T05:55:24.942Z,18.44
2022-08-26T05:56:24.961Z,18.50
2022-08-26T05:57:24.949Z,18.58
2022-08-26T05:58:24.892Z,18.65
2022-08-26T05:59:25.290Z,18.70
2022-08-26T06:00:24.900Z,18.78
2022-08-26T06:01:24.948Z,18.87
2022-08-26T06:02:24.890Z,18.87
2022-08-26T06:03:24.846Z,18.90
2022-08-26T06:04:27.070Z,18.94
2022-08-26T06:05:24.848Z,19.00
2022-08-26T06:06:27.576Z,19.06
2022-08-26T06:07:24.808Z,19.08
2022-08-26T06:08:24.777Z,19.14
2022-08-26T06:09:25.261Z,19.19
2022-08-26T06:10:32.478Z,19.22
2022-08-26T06:11:26.018Z,19.31
2022-08-26T06:12:24.735Z,19.41
2022-08-26T06:13:24.715Z,19.48
2022-08-26T06:14:24.703Z,19.55
2022-08-26T06:15:25.152Z,19.59
2022-08-26T06:16:24.704Z,19.58
2022-08-26T06:17:24.687Z,19.61
2022-08-26T06:18:24.639Z,19.65
2022-08-26T06:19:24.649Z,19.65
2022-08-26T06:20:24.988Z,19.76
2022-08-26T06:21:24.608Z,19.86
2022-08-26T06:22:24.598Z,19.94
2022-08-26T06:23:24.625Z,20.02
2022-08-26T06:24:27.023Z,20.06
2022-08-26T06:25:25.011Z,20.16
2022-08-26T06:26:24.538Z,20.24
2022-08-26T06:27:25.315Z,20.31
2022-08-26T06:28:24.538Z,20.39
2022-08-26T06:29:24.856Z,20.43
2022-08-26T06:30:24.890Z,20.47
2022-08-26T06:31:24.508Z,20.59
2022-08-26T06:32:24.473Z,20.77
2022-08-26T06:33:24.464Z,20.91
2022-08-26T06:34:29.856Z,21.06
2022-08-26T06:35:25.768Z,21.19
2022-08-26T06:36:24.417Z,21.34
2022-08-26T06:37:24.396Z,21.50
2022-08-26T06:38:24.375Z,21.72
2022-08-26T06:39:24.407Z,21.92
2022-08-26T06:40:24.921Z,22.18
2022-08-26T06:41:25.197Z,22.46
2022-08-26T06:42:24.335Z,22.72
2022-08-26T06:43:24.334Z,22.98
2022-08-26T06:44:24.296Z,23.05
2022-08-26T06:45:24.806Z,23.23
2022-08-26T06:46:24.353Z,23.35
2022-08-26T06:47:24.267Z,23.48
2022-08-26T06:48:24.257Z,23.58
2022-08-26T06:49:27.223Z,23.76
2022-08-26T06:50:24.254Z,23.73
2022-08-26T06:51:24.672Z,23.80
2022-08-26T06:52:24.610Z,23.87
2022-08-26T06:53:24.204Z,24.03
2022-08-26T06:54:24.183Z,24.20
2022-08-26T06:55:27.060Z,24.22
2022-08-26T06:56:24.586Z,24.25
2022-08-26T06:57:24.154Z,24.37
2022-08-26T06:58:24.136Z,24.42
2022-08-26T06:59:24.115Z,24.37
2022-08-26T07:00:24.108Z,24.35
2022-08-26T07:01:24.574Z,24.32
2022-08-26T07:02:24.140Z,24.31
2022-08-26T07:03:24.075Z,24.50
2022-08-26T07:04:24.066Z,24.50
2022-08-26T07:05:24.060Z,24.68
2022-08-26T07:06:24.365Z,25.15
2022-08-26T07:07:24.055Z,25.47
2022-08-26T07:08:23.996Z,25.91
2022-08-26T07:09:24.006Z,26.20
2022-08-26T07:10:24.406Z,26.29
2022-08-26T07:11:23.966Z,26.39
2022-08-26T07:12:23.955Z,26.58
2022-08-26T07:13:30.711Z,26.66
2022-08-26T07:14:24.923Z,26.89
2022-08-26T07:15:27.112Z,27.13
2022-08-26T07:16:25.325Z,27.24
2022-08-26T07:17:24.983Z,27.22
2022-08-26T07:18:23.856Z,27.39
2022-08-26T07:19:27.574Z,27.44
2022-08-26T07:20:24.853Z,27.29
2022-08-26T07:21:24.167Z,27.09
2022-08-26T07:22:23.816Z,27.14
2022-08-26T07:23:23.805Z,27.18
2022-08-26T07:24:23.783Z,27.44
2022-08-26T07:25:23.786Z,27.43
2022-08-26T07:26:24.933Z,27.59
2022-08-26T07:27:23.754Z,27.63
2022-08-26T07:28:23.744Z,27.54
2022-08-26T07:29:24.463Z,27.70
2022-08-26T07:30:23.716Z,27.72
2022-08-26T07:31:24.443Z,27.97
2022-08-26T07:32:23.707Z,28.22
2022-08-26T07:33:23.669Z,28.52
2022-08-26T07:34:23.701Z,28.73
2022-08-26T07:35:23.669Z,28.89
2022-08-26T07:36:23.957Z,28.89
2022-08-26T07:37:23.626Z,29.09
2022-08-26T07:38:23.626Z,29.05
2022-08-26T07:39:23.606Z,29.26
2022-08-26T07:40:23.653Z,29.49
2022-08-26T07:41:24.002Z,29.26
2022-08-26T07:42:23.597Z,29.09
2022-08-26T07:43:23.564Z,29.05
2022-08-26T07:44:23.637Z,29.33
2022-08-26T07:45:23.566Z,29.45
2022-08-26T07:46:27.486Z,29.37
2022-08-26T07:47:26.237Z,29.53
2022-08-26T07:48:23.598Z,29.42
2022-08-26T07:49:30.699Z,29.48
2022-08-26T07:50:23.815Z,29.61
2022-08-26T07:51:25.010Z,29.52
2022-08-26T07:52:26.643Z,29.36
2022-08-26T07:53:24.164Z,29.55
2022-08-26T07:54:26.661Z,29.90
2022-08-26T07:55:23.458Z,30.05
2022-08-26T07:56:23.845Z,30.22
2022-08-26T07:57:24.238Z,30.19
2022-08-26T07:58:23.414Z,29.94
2022-08-26T07:59:23.368Z,29.95
2022-08-26T08:00:23.387Z,30.00
2022-08-26T08:01:23.970Z,30.24
2022-08-26T08:02:23.371Z,30.49
2022-08-26T08:03:23.360Z,30.60
2022-08-26T08:04:26.509Z,30.80
2022-08-26T08:05:23.405Z,30.69
2022-08-26T08:06:27.249Z,30.32
2022-08-26T08:07:38.628Z,30.27
2022-08-26T08:08:27.682Z,30.26
2022-08-26T08:09:24.268Z,30.29
2022-08-26T08:10:25.148Z,30.55
2022-08-26T08:11:23.599Z,30.75
2022-08-26T08:12:23.206Z,30.79
2022-08-26T08:13:23.588Z,31.01
2022-08-26T08:14:23.218Z,30.91
2022-08-26T08:15:23.185Z,30.70
2022-08-26T08:16:23.633Z,30.91
2022-08-26T08:17:23.156Z,31.20
2022-08-26T08:18:23.138Z,31.04
2022-08-26T08:19:23.839Z,30.95
2022-08-26T08:20:23.167Z,30.67
2022-08-26T08:21:23.787Z,30.47
2022-08-26T08:22:23.855Z,30.08
2022-08-26T08:23:23.112Z,29.85
2022-08-26T08:24:23.077Z,29.76
2022-08-26T08:25:23.099Z,29.71
2022-08-26T08:26:23.047Z,29.73
2022-08-26T08:27:24.267Z,29.79
2022-08-26T08:28:23.027Z,29.70
2022-08-26T08:29:23.031Z,29.83
2022-08-26T08:30:23.314Z,29.67
2022-08-26T08:31:45.131Z,29.48
2022-08-26T08:32:24.331Z,29.46
2022-08-26T08:33:22.979Z,29.46
2022-08-26T08:34:22.949Z,29.30
2022-08-26T08:35:22.967Z,29.36
2022-08-26T08:36:22.928Z,29.37
2022-08-26T08:37:23.360Z,29.27
2022-08-26T08:38:22.939Z,29.09
2022-08-26T08:39:22.880Z,28.74
2022-08-26T08:40:22.921Z,28.49
2022-08-26T08:41:22.878Z,28.55
2022-08-26T08:42:23.623Z,28.43
2022-08-26T08:43:23.288Z,28.33
2022-08-26T08:45:22.818Z,28.25
2022-08-26T08:46:22.815Z,28.25
2022-08-26T08:47:22.978Z,28.36
2022-08-26T08:48:28.045Z,28.30
2022-08-26T08:49:23.771Z,28.34
2022-08-26T08:50:22.759Z,28.39
2022-08-26T08:51:22.768Z,28.36
2022-08-26T08:52:23.101Z,28.21
2022-08-26T08:53:22.750Z,28.09
2022-08-26T08:54:22.707Z,27.94
2022-08-26T08:55:22.690Z,27.85
2022-08-26T08:56:22.721Z,27.96
2022-08-26T08:57:22.680Z,28.15
2022-08-26T08:58:23.099Z,28.14
2022-08-26T08:59:22.680Z,28.15
2022-08-26T09:00:30.302Z,28.15
2022-08-26T09:01:23.691Z,28.22
2022-08-26T09:02:22.699Z,28.15
2022-08-26T09:03:23.049Z,28.24
2022-08-26T09:04:22.587Z,28.30
2022-08-26T09:05:22.570Z,28.43
2022-08-26T09:06:22.550Z,28.51
2022-08-26T09:07:22.558Z,28.49
2022-08-26T09:08:22.887Z,28.58
2022-08-26T09:09:22.520Z,28.61
2022-08-26T09:10:22.540Z,28.59
2022-08-26T09:11:22.490Z,28.36
2022-08-26T09:12:29.192Z,28.29
2022-08-26T09:13:25.239Z,28.25
2022-08-26T09:14:22.480Z,28.31
2022-08-26T09:15:22.460Z,28.25
2022-08-26T09:16:22.509Z,28.30
2022-08-26T09:17:22.440Z,28.36
2022-08-26T09:18:22.782Z,28.43
2022-08-26T09:19:22.389Z,28.54
2022-08-26T09:20:22.402Z,28.58
2022-08-26T09:21:22.390Z,28.56
2022-08-26T09:23:22.760Z,28.34
2022-08-26T09:24:22.431Z,28.18
2022-08-26T09:25:23.322Z,28.06
2022-08-26T09:26:25.845Z,28.15
2022-08-26T09:27:23.301Z,28.24
2022-08-26T09:28:22.621Z,28.27
2022-08-26T09:29:22.286Z,28.37
2022-08-26T09:30:22.301Z,28.34
2022-08-26T09:31:22.308Z,28.09
2022-08-26T09:32:22.260Z,27.99
2022-08-26T09:33:22.682Z,28.03
2022-08-26T09:34:22.237Z,28.02
2022-08-26T09:35:22.201Z,28.12
2022-08-26T09:36:22.182Z,28.29
2022-08-26T09:37:22.173Z,28.31
2022-08-26T09:38:22.181Z,28.46
2022-08-26T09:39:22.522Z,28.46
2022-08-26T09:40:22.207Z,28.46
2022-08-26T09:41:22.111Z,28.59
2022-08-26T09:42:22.119Z,28.71
2022-08-26T09:43:23.021Z,28.52
2022-08-26T09:44:22.511Z,28.24
2022-08-26T09:45:22.050Z,28.19
2022-08-26T09:46:22.132Z,28.19
2022-08-26T09:47:22.030Z,28.24
2022-08-26T09:48:22.048Z,28.27
2022-08-26T09:49:22.389Z,28.37
2022-08-26T09:50:22.000Z,28.40
2022-08-26T09:51:23.019Z,28.30
2022-08-26T09:52:21.991Z,28.33
2022-08-26T09:53:28.734Z,28.24
2022-08-26T09:54:23.381Z,28.22
2022-08-26T09:55:22.940Z,28.12
2022-08-26T09:56:21.992Z,28.09
2022-08-26T09:57:21.951Z,28.11
2022-08-26T09:58:22.369Z,28.09
2022-08-26T09:59:21.881Z,28.15
2022-08-26T10:00:21.872Z,28.19
2022-08-26T10:01:21.933Z,28.36
2022-08-26T10:02:21.874Z,28.49
2022-08-26T10:03:21.830Z,28.71
2022-08-26T10:04:22.291Z,28.81
2022-08-26T10:05:21.830Z,28.83
2022-08-26T10:06:21.820Z,28.89
2022-08-26T10:07:21.790Z,28.89
2022-08-26T10:08:23.040Z,28.70
2022-08-26T10:09:22.218Z,28.66
2022-08-26T10:10:21.761Z,28.74
2022-08-26T10:11:21.721Z,28.83
2022-08-26T10:12:21.750Z,28.98
2022-08-26T10:13:21.703Z,29.06
2022-08-26T10:14:22.075Z,29.15
2022-08-26T10:15:22.449Z,29.24
2022-08-26T10:16:21.734Z,29.33
2022-08-26T10:17:21.657Z,29.55
2022-08-26T10:18:21.640Z,29.67
2022-08-26T10:19:22.080Z,29.73
2022-08-26T10:20:22.771Z,29.71
2022-08-26T10:21:21.698Z,29.73
2022-08-26T10:22:21.621Z,29.74
2022-08-26T10:23:21.586Z,29.79
2022-08-26T10:24:21.588Z,29.89
2022-08-26T10:25:21.992Z,29.97
2022-08-26T10:26:21.563Z,30.00
2022-08-26T10:27:21.532Z,30.00
2022-08-26T10:28:21.511Z,29.95
2022-08-26T10:29:22.133Z,29.92
2022-08-26T10:30:22.161Z,29.86
2022-08-26T10:31:21.494Z,29.78
2022-08-26T10:32:22.605Z,29.64
2022-08-26T10:33:21.473Z,29.67
2022-08-26T10:34:21.879Z,29.74
2022-08-26T10:35:21.469Z,29.82
2022-08-26T10:36:21.411Z,29.98
2022-08-26T10:37:21.382Z,30.08
2022-08-26T10:38:21.400Z,30.16
2022-08-26T10:39:21.369Z,30.22
2022-08-26T10:40:21.830Z,30.23
2022-08-26T10:41:21.361Z,30.17
2022-08-26T10:42:21.351Z,30.13
2022-08-26T10:43:21.361Z,30.04
2022-08-26T10:44:21.341Z,29.94
2022-08-26T10:45:21.779Z,29.90
2022-08-26T10:46:21.340Z,29.92
2022-08-26T10:47:21.265Z,29.92
2022-08-26T10:48:21.305Z,29.98
2022-08-26T10:49:21.251Z,29.89
2022-08-26T10:50:21.677Z,29.90
2022-08-26T10:51:21.503Z,29.94
2022-08-26T10:52:21.522Z,29.94
2022-08-26T10:53:25.303Z,29.97
2022-08-26T10:54:21.271Z,30.01
2022-08-26T10:55:21.171Z,30.01
2022-08-26T10:56:21.520Z,29.95
2022-08-26T10:57:21.167Z,29.86
2022-08-26T10:58:26.625Z,29.80
2022-08-26T10:59:22.130Z,29.85
2022-08-26T11:00:21.103Z,29.94
2022-08-26T11:01:22.798Z,30.04
2022-08-26T11:02:24.788Z,30.13
2022-08-26T11:03:22.650Z,30.23
2022-08-26T11:04:22.568Z,30.32
2022-08-26T11:05:21.053Z,30.49
2022-08-26T11:06:21.461Z,30.65
2022-08-26T11:07:21.040Z,30.73
2022-08-26T11:08:21.053Z,30.80
2022-08-26T11:09:21.026Z,30.94
2022-08-26T11:10:22.363Z,30.97
2022-08-26T11:11:20.983Z,31.01
2022-08-26T11:12:20.962Z,31.13
2022-08-26T11:13:20.961Z,31.17
2022-08-26T11:14:28.503Z,31.21
2022-08-26T11:15:24.640Z,31.12
2022-08-26T11:16:21.535Z,31.10
2022-08-26T11:17:20.892Z,31.13
2022-08-26T11:18:20.898Z,31.23
2022-08-26T11:19:20.881Z,31.34
2022-08-26T11:20:20.863Z,31.31
2022-08-26T11:21:21.297Z,31.28
2022-08-26T11:22:20.847Z,31.41
2022-08-26T11:23:20.825Z,31.43
2022-08-26T11:24:20.813Z,31.46
2022-08-26T11:25:20.803Z,31.53
2022-08-26T11:26:36.204Z,31.72
2022-08-26T11:27:21.787Z,31.95
2022-08-26T11:28:20.784Z,32.14
2022-08-26T11:29:20.762Z,32.30
2022-08-26T11:30:20.785Z,32.29
2022-08-26T11:31:21.066Z,32.47
2022-08-26T11:32:21.022Z,32.56
2022-08-26T11:33:20.694Z,32.67
2022-08-26T11:34:20.709Z,32.72
2022-08-26T11:35:20.672Z,32.81
2022-08-26T11:36:20.689Z,32.72
2022-08-26T11:37:21.011Z,32.88
2022-08-26T11:38:20.658Z,32.78
2022-08-26T11:39:20.648Z,32.81
2022-08-26T11:40:20.727Z,32.97
2022-08-26T11:41:20.699Z,33.11
2022-08-26T11:42:20.642Z,33.19
2022-08-26T11:43:20.580Z,33.38
2022-08-26T11:44:20.591Z,33.57
2022-08-26T11:45:20.602Z,33.66
2022-08-26T11:46:20.583Z,33.79
2022-08-26T11:47:20.910Z,33.90
2022-08-26T11:48:20.913Z,33.95
2022-08-26T11:49:20.502Z,33.98
2022-08-26T11:50:20.500Z,33.82
2022-08-26T11:51:20.502Z,33.42
2022-08-26T11:52:20.932Z,33.38
2022-08-26T11:53:20.823Z,33.42
2022-08-26T11:54:34.530Z,33.45
2022-08-26T11:55:23.476Z,33.47
2022-08-26T11:56:20.431Z,33.11
2022-08-26T11:57:20.437Z,32.94
2022-08-26T11:58:20.873Z,32.84
2022-08-26T11:59:20.391Z,32.82
2022-08-26T12:00:22.528Z,32.93
2022-08-26T12:01:20.398Z,33.01
2022-08-26T12:02:20.364Z,32.93
2022-08-26T12:03:20.798Z,32.92
2022-08-26T12:04:20.431Z,32.75
2022-08-26T12:05:20.322Z,32.50
2022-08-26T12:06:20.364Z,32.18
2022-08-26T12:07:23.802Z,31.80
2022-08-26T12:08:20.713Z,31.61
2022-08-26T12:09:20.313Z,31.51
2022-08-26T12:10:20.231Z,31.36
2022-08-26T12:11:20.233Z,31.48
2022-08-26T12:12:20.226Z,31.46
2022-08-26T12:13:20.607Z,31.28
2022-08-26T12:14:20.192Z,31.09
2022-08-26T12:15:20.176Z,30.95
2022-08-26T12:16:20.192Z,31.02
2022-08-26T12:17:22.537Z,30.91
2022-08-26T12:18:20.712Z,31.10
2022-08-26T12:19:21.134Z,31.34
2022-08-26T12:20:20.162Z,31.66
2022-08-26T12:21:20.183Z,31.91
2022-08-26T12:22:20.942Z,31.99
2022-08-26T12:23:20.405Z,31.84
2022-08-26T12:24:20.082Z,31.81
2022-08-26T12:25:20.098Z,31.54
2022-08-26T12:26:20.068Z,31.43
2022-08-26T12:27:20.044Z,31.34
2022-08-26T12:28:20.703Z,31.38
2022-08-26T12:29:26.940Z,31.62
2022-08-26T12:30:21.045Z,31.69
2022-08-26T12:31:20.036Z,31.78
2022-08-26T12:32:19.982Z,31.81
2022-08-26T12:33:22.999Z,32.00
2022-08-26T12:34:19.948Z,32.08
2022-08-26T12:35:19.935Z,32.23
2022-08-26T12:36:19.935Z,32.28
2022-08-26T12:37:19.948Z,32.10
2022-08-26T12:38:19.943Z,32.04
2022-08-26T12:39:20.186Z,31.78
2022-08-26T12:40:19.939Z,31.35
2022-08-26T12:41:19.864Z,31.13
2022-08-26T12:42:19.855Z,31.35
2022-08-26T12:43:19.865Z,31.51
2022-08-26T12:44:20.125Z,31.63
2022-08-26T12:45:19.856Z,31.72
2022-08-26T12:46:19.828Z,31.65
2022-08-26T12:47:20.509Z,31.36
2022-08-26T12:48:20.760Z,31.32
2022-08-26T12:49:19.783Z,31.44
2022-08-26T12:50:19.744Z,31.70
2022-08-26T12:51:19.754Z,31.68
2022-08-26T12:52:19.732Z,31.65
2022-08-26T12:53:19.755Z,31.91
2022-08-26T12:54:20.066Z,31.99